sensor_id;sensor_type;location;lat;lon;timestamp;P1;durP1;ratioP1;P2;durP2;ratioP2
57615;SDS011;43816;52.054;-9.494;2023-04-01T00:00:02;3.50;;;1.63;;
57615;SDS011;43816;52.054;-9.494;2023-04-01T00:00:13;4.10;;;1.83;;
57615;SDS011;43816;52.054;-9.494;2023-04-01T00:00:23;4.05;;;1.90;;
57615;SDS011;43816;52.054;-9.494;2023-04-01T00:00:33;3.37;;;1.80;;
57615;SDS011;43816;52.054;-9.494;2023-04-01T00:00:44;2.88;;;1.67;;
57615;SDS011;43816;52.054;-9.494;2023-04-01T00:01:07;2.58;;;1.52;;
57615;SDS011;43816;52.054;-9.494;2023-04-01T00:01:18;3.17;;;1.73;;
57615;SDS011;43816;52.054;-9.494;2023-04-01T00:01:28;3.67;;;2.00;;
57615;SDS011;43816;52.054;-9.494;2023-04-01T00:01:38;3.67;;;2.10;;
57615;SDS011;43816;52.054;-9.494;2023-04-01T00:01:49;3.70;;;2.00;;
57615;SDS011;43816;52.054;-9.494;2023-04-01T00:01:59;3.30;;;1.77;;
57615;SDS011;43816;52.054;-9.494;2023-04-01T00:02:10;2.90;;;1.50;;
57615;SDS011;43816;52.054;-9.494;2023-04-01T00:02:20;2.77;;;1.53;;
57615;SDS011;43816;52.054;-9.494;2023-04-01T00:02:30;2.83;;;1.57;;
57615;SDS011;43816;52.054;-9.494;2023-04-01T00:02:43;2.95;;;1.65;;
57615;SDS011;43816;52.054;-9.494;2023-04-01T00:02:54;3.03;;;1.50;;
57615;SDS011;43816;52.054;-9.494;2023-04-01T00:03:10;3.43;;;1.50;;
57615;SDS011;43816;52.054;-9.494;2023-04-01T00:03:21;2.80;;;1.50;;
57615;SDS011;43816;52.054;-9.494;2023-04-01T00:03:37;2.35;;;1.50;;
57615;SDS011;43816;52.054;-9.494;2023-04-01T00:03:48;2.33;;;1.45;;
57615;SDS011;43816;52.054;-9.494;2023-04-01T00:03:58;2.77;;;1.60;;
57615;SDS011;43816;52.054;-9.494;2023-04-01T00:04:08;2.60;;;1.50;;
57615;SDS011;43816;52.054;-9.494;2023-04-01T00:04:18;2.50;;;1.40;;
57615;SDS011;43816;52.054;-9.494;2023-04-01T00:04:31;2.37;;;1.50;;
57615;SDS011;43816;52.054;-9.494;2023-04-01T00:04:42;2.22;;;1.60;;
57615;SDS011;43816;52.054;-9.494;2023-04-01T00:04:52;2.20;;;1.50;;
57615;SDS011;43816;52.054;-9.494;2023-04-01T00:05:03;2.47;;;1.53;;
57615;SDS011;43816;52.054;-9.494;2023-04-01T00:05:13;2.40;;;1.48;;
57615;SDS011;43816;52.054;-9.494;2023-04-01T00:05:24;2.53;;;1.40;;
57615;SDS011;43816;52.054;-9.494;2023-04-01T00:05:34;2.53;;;1.33;;
57615;SDS011;43816;52.054;-9.494;2023-04-01T00:05:45;2.90;;;1.50;;
57615;SDS011;43816;52.054;-9.494;2023-04-01T00:05:55;3.08;;;1.50;;
57615;SDS011;43816;52.054;-9.494;2023-04-01T00:06:07;3.35;;;1.67;;
57615;SDS011;43816;52.054;-9.494;2023-04-01T00:06:19;3.40;;;1.70;;
57615;SDS011;43816;52.054;-9.494;2023-04-01T00:06:29;3.00;;;1.70;;
57615;SDS011;43816;52.054;-9.494;2023-04-01T00:06:39;2.83;;;1.70;;
57615;SDS011;43816;52.054;-9.494;2023-04-01T00:06:52;2.58;;;1.48;;
57615;SDS011;43816;52.054;-9.494;2023-04-01T00:07:03;2.33;;;1.43;;
57615;SDS011;43816;52.054;-9.494;2023-04-01T00:07:13;2.28;;;1.50;;
57615;SDS011;43816;52.054;-9.494;2023-04-01T00:07:23;2.40;;;1.50;;
57615;SDS011;43816;52.054;-9.494;2023-04-01T00:07:34;2.80;;;1.50;;
57615;SDS011;43816;52.054;-9.494;2023-04-01T00:07:44;2.83;;;1.40;;
57615;SDS011;43816;52.054;-9.494;2023-04-01T00:07:58;3.08;;;1.50;;
57615;SDS011;43816;52.054;-9.494;2023-04-01T00:08:08;3.10;;;1.70;;
57615;SDS011;43816;52.054;-9.494;2023-04-01T00:08:18;2.85;;;1.70;;
57615;SDS011;43816;52.054;-9.494;2023-04-01T00:08:29;2.70;;;1.57;;
57615;SDS011;43816;52.054;-9.494;2023-04-01T00:08:39;2.40;;;1.55;;
57615;SDS011;43816;52.054;-9.494;2023-04-01T00:08:50;2.53;;;1.47;;
57615;SDS011;43816;52.054;-9.494;2023-04-01T00:09:03;2.60;;;1.50;;
57615;SDS011;43816;52.054;-9.494;2023-04-01T00:09:16;2.63;;;1.35;;
57615;SDS011;43816;52.054;-9.494;2023-04-01T00:09:26;2.00;;;1.20;;
57615;SDS011;43816;52.054;-9.494;2023-04-01T00:09:36;2.40;;;1.42;;
57615;SDS011;43816;52.054;-9.494;2023-04-01T00:09:47;2.83;;;1.50;;
57615;SDS011;43816;52.054;-9.494;2023-04-01T00:09:57;3.37;;;1.60;;
57615;SDS011;43816;52.054;-9.494;2023-04-01T00:10:09;2.73;;;1.50;;
57615;SDS011;43816;52.054;-9.494;2023-04-01T00:10:20;2.42;;;1.40;;
57615;SDS011;43816;52.054;-9.494;2023-04-01T00:10:33;3.23;;;1.47;;
57615;SDS011;43816;52.054;-9.494;2023-04-01T00:10:44;3.42;;;1.45;;
57615;SDS011;43816;52.054;-9.494;2023-04-01T00:10:54;3.17;;;1.40;;
57615;SDS011;43816;52.054;-9.494;2023-04-01T00:11:05;2.43;;;1.37;;
57615;SDS011;43816;52.054;-9.494;2023-04-01T00:11:15;2.10;;;1.30;;
57615;SDS011;43816;52.054;-9.494;2023-04-01T00:11:26;2.22;;;1.40;;
57615;SDS011;43816;52.054;-9.494;2023-04-01T00:11:37;2.47;;;1.40;;
57615;SDS011;43816;52.054;-9.494;2023-04-01T00:11:48;2.47;;;1.50;;
57615;SDS011;43816;52.054;-9.494;2023-04-01T00:11:58;2.60;;;1.57;;
57615;SDS011;43816;52.054;-9.494;2023-04-01T00:12:24;2.53;;;1.52;;
57615;SDS011;43816;52.054;-9.494;2023-04-01T00:12:34;2.65;;;1.50;;
57615;SDS011;43816;52.054;-9.494;2023-04-01T00:12:45;3.13;;;1.52;;
57615;SDS011;43816;52.054;-9.494;2023-04-01T00:12:55;3.07;;;1.50;;
57615;SDS011;43816;52.054;-9.494;2023-04-01T00:13:06;2.88;;;1.50;;
57615;SDS011;43816;52.054;-9.494;2023-04-01T00:13:16;2.70;;;1.60;;
57615;SDS011;43816;52.054;-9.494;2023-04-01T00:13:26;2.60;;;1.60;;
57615;SDS011;43816;52.054;-9.494;2023-04-01T00:13:37;2.78;;;1.70;;
57615;SDS011;43816;52.054;-9.494;2023-04-01T00:13:47;2.40;;;1.53;;
57615;SDS011;43816;52.054;-9.494;2023-04-01T00:14:03;2.13;;;1.40;;
57615;SDS011;43816;52.054;-9.494;2023-04-01T00:14:14;2.00;;;1.23;;
57615;SDS011;43816;52.054;-9.494;2023-04-01T00:14:27;2.33;;;1.40;;
57615;SDS011;43816;52.054;-9.494;2023-04-01T00:14:37;2.42;;;1.38;;
57615;SDS011;43816;52.054;-9.494;2023-04-01T00:14:48;2.08;;;1.40;;
57615;SDS011;43816;52.054;-9.494;2023-04-01T00:15:01;2.07;;;1.50;;
57615;SDS011;43816;52.054;-9.494;2023-04-01T00:15:15;2.30;;;1.63;;
57615;SDS011;43816;52.054;-9.494;2023-04-01T00:15:29;2.38;;;1.40;;
57615;SDS011;43816;52.054;-9.494;2023-04-01T00:15:39;2.50;;;1.40;;
57615;SDS011;43816;52.054;-9.494;2023-04-01T00:15:56;2.33;;;1.40;;
57615;SDS011;43816;52.054;-9.494;2023-04-01T00:16:07;1.83;;;1.40;;
57615;SDS011;43816;52.054;-9.494;2023-04-01T00:16:18;2.17;;;1.40;;
57615;SDS011;43816;52.054;-9.494;2023-04-01T00:16:28;2.30;;;1.50;;
57615;SDS011;43816;52.054;-9.494;2023-04-01T00:16:42;1.90;;;1.50;;
57615;SDS011;43816;52.054;-9.494;2023-04-01T00:16:52;1.85;;;1.38;;
57615;SDS011;43816;52.054;-9.494;2023-04-01T00:17:03;2.65;;;1.45;;
57615;SDS011;43816;52.054;-9.494;2023-04-01T00:17:13;3.28;;;1.67;;
57615;SDS011;43816;52.054;-9.494;2023-04-01T00:17:27;3.50;;;1.73;;
57615;SDS011;43816;52.054;-9.494;2023-04-01T00:17:38;3.08;;;1.60;;
57615;SDS011;43816;52.054;-9.494;2023-04-01T00:17:48;2.58;;;1.30;;
57615;SDS011;43816;52.054;-9.494;2023-04-01T00:17:58;2.47;;;1.33;;
57615;SDS011;43816;52.054;-9.494;2023-04-01T00:18:12;2.53;;;1.50;;
57615;SDS011;43816;52.054;-9.494;2023-04-01T00:18:23;2.70;;;1.60;;
57615;SDS011;43816;52.054;-9.494;2023-04-01T00:18:34;2.67;;;1.48;;
57615;SDS011;43816;52.054;-9.494;2023-04-01T00:18:48;2.85;;;1.50;;
57615;SDS011;43816;52.054;-9.494;2023-04-01T00:18:59;3.35;;;1.63;;
57615;SDS011;43816;52.054;-9.494;2023-04-01T00:19:09;3.47;;;1.60;;
57615;SDS011;43816;52.054;-9.494;2023-04-01T00:19:20;3.17;;;1.53;;
57615;SDS011;43816;52.054;-9.494;2023-04-01T00:19:30;2.83;;;1.42;;
57615;SDS011;43816;52.054;-9.494;2023-04-01T00:19:40;2.77;;;1.43;;
57615;SDS011;43816;52.054;-9.494;2023-04-01T00:19:57;3.07;;;1.43;;
57615;SDS011;43816;52.054;-9.494;2023-04-01T00:20:08;2.58;;;1.52;;
57615;SDS011;43816;52.054;-9.494;2023-04-01T00:20:19;2.05;;;1.50;;
57615;SDS011;43816;52.054;-9.494;2023-04-01T00:20:29;2.17;;;1.50;;
57615;SDS011;43816;52.054;-9.494;2023-04-01T00:20:43;2.20;;;1.47;;
57615;SDS011;43816;52.054;-9.494;2023-04-01T00:20:57;1.80;;;1.30;;
57615;SDS011;43816;52.054;-9.494;2023-04-01T00:21:08;2.03;;;1.38;;
57615;SDS011;43816;52.054;-9.494;2023-04-01T00:21:18;2.60;;;1.40;;
57615;SDS011;43816;52.054;-9.494;2023-04-01T00:21:29;2.85;;;1.45;;
57615;SDS011;43816;52.054;-9.494;2023-04-01T00:21:40;3.05;;;1.48;;
57615;SDS011;43816;52.054;-9.494;2023-04-01T00:21:50;2.90;;;1.40;;
57615;SDS011;43816;52.054;-9.494;2023-04-01T00:22:00;2.50;;;1.35;;
57615;SDS011;43816;52.054;-9.494;2023-04-01T00:22:11;1.93;;;1.30;;
57615;SDS011;43816;52.054;-9.494;2023-04-01T00:22:21;2.23;;;1.40;;
57615;SDS011;43816;52.054;-9.494;2023-04-01T00:22:31;2.45;;;1.50;;
57615;SDS011;43816;52.054;-9.494;2023-04-01T00:22:42;2.73;;;1.50;;
57615;SDS011;43816;52.054;-9.494;2023-04-01T00:22:52;2.63;;;1.40;;
57615;SDS011;43816;52.054;-9.494;2023-04-01T00:23:02;3.00;;;1.42;;
57615;SDS011;43816;52.054;-9.494;2023-04-01T00:23:13;2.83;;;1.40;;
57615;SDS011;43816;52.054;-9.494;2023-04-01T00:23:25;2.42;;;1.35;;
57615;SDS011;43816;52.054;-9.494;2023-04-01T00:23:36;2.20;;;1.20;;
57615;SDS011;43816;52.054;-9.494;2023-04-01T00:23:46;1.90;;;1.20;;
57615;SDS011;43816;52.054;-9.494;2023-04-01T00:23:56;2.10;;;1.30;;
57615;SDS011;43816;52.054;-9.494;2023-04-01T00:24:07;2.13;;;1.30;;
57615;SDS011;43816;52.054;-9.494;2023-04-01T00:24:17;2.33;;;1.27;;
57615;SDS011;43816;52.054;-9.494;2023-04-01T00:24:27;2.73;;;1.30;;
57615;SDS011;43816;52.054;-9.494;2023-04-01T00:24:38;3.30;;;1.53;;
57615;SDS011;43816;52.054;-9.494;2023-04-01T00:24:48;3.53;;;1.63;;
57615;SDS011;43816;52.054;-9.494;2023-04-01T00:24:58;2.57;;;1.43;;
57615;SDS011;43816;52.054;-9.494;2023-04-01T00:25:09;2.10;;;1.27;;
57615;SDS011;43816;52.054;-9.494;2023-04-01T00:25:22;1.77;;;1.30;;
57615;SDS011;43816;52.054;-9.494;2023-04-01T00:25:32;2.45;;;1.52;;
57615;SDS011;43816;52.054;-9.494;2023-04-01T00:25:43;2.50;;;1.67;;
57615;SDS011;43816;52.054;-9.494;2023-04-01T00:25:54;2.33;;;1.55;;
57615;SDS011;43816;52.054;-9.494;2023-04-01T00:26:04;2.17;;;1.50;;
57615;SDS011;43816;52.054;-9.494;2023-04-01T00:26:17;2.07;;;1.37;;
57615;SDS011;43816;52.054;-9.494;2023-04-01T00:26:27;2.63;;;1.50;;
57615;SDS011;43816;52.054;-9.494;2023-04-01T00:26:41;3.00;;;1.50;;
57615;SDS011;43816;52.054;-9.494;2023-04-01T00:26:54;3.00;;;1.60;;
57615;SDS011;43816;52.054;-9.494;2023-04-01T00:27:14;2.60;;;1.70;;
57615;SDS011;43816;52.054;-9.494;2023-04-01T00:27:25;2.65;;;1.70;;
57615;SDS011;43816;52.054;-9.494;2023-04-01T00:27:37;2.83;;;1.70;;
57615;SDS011;43816;52.054;-9.494;2023-04-01T00:27:48;2.83;;;1.50;;
57615;SDS011;43816;52.054;-9.494;2023-04-01T00:27:58;2.50;;;1.40;;
57615;SDS011;43816;52.054;-9.494;2023-04-01T00:28:08;2.20;;;1.40;;
57615;SDS011;43816;52.054;-9.494;2023-04-01T00:28:19;2.27;;;1.43;;
57615;SDS011;43816;52.054;-9.494;2023-04-01T00:28:33;2.47;;;1.45;;
57615;SDS011;43816;52.054;-9.494;2023-04-01T00:28:44;2.35;;;1.38;;
57615;SDS011;43816;52.054;-9.494;2023-04-01T00:28:55;2.65;;;1.40;;
57615;SDS011;43816;52.054;-9.494;2023-04-01T00:29:05;2.63;;;1.40;;
57615;SDS011;43816;52.054;-9.494;2023-04-01T00:29:15;2.60;;;1.30;;
57615;SDS011;43816;52.054;-9.494;2023-04-01T00:29:26;2.30;;;1.30;;
57615;SDS011;43816;52.054;-9.494;2023-04-01T00:29:36;2.17;;;1.30;;
57615;SDS011;43816;52.054;-9.494;2023-04-01T00:29:46;2.00;;;1.30;;
57615;SDS011;43816;52.054;-9.494;2023-04-01T00:29:57;2.33;;;1.40;;
57615;SDS011;43816;52.054;-9.494;2023-04-01T00:30:10;2.65;;;1.50;;
57615;SDS011;43816;52.054;-9.494;2023-04-01T00:30:21;2.43;;;1.50;;
57615;SDS011;43816;52.054;-9.494;2023-04-01T00:30:33;2.22;;;1.48;;
57615;SDS011;43816;52.054;-9.494;2023-04-01T00:30:45;2.20;;;1.42;;
57615;SDS011;43816;52.054;-9.494;2023-04-01T00:30:56;2.58;;;1.50;;
57615;SDS011;43816;52.054;-9.494;2023-04-01T00:31:09;2.43;;;1.40;;
57615;SDS011;43816;52.054;-9.494;2023-04-01T00:31:20;2.65;;;1.40;;
57615;SDS011;43816;52.054;-9.494;2023-04-01T00:31:30;2.57;;;1.50;;
57615;SDS011;43816;52.054;-9.494;2023-04-01T00:31:41;2.83;;;1.48;;
57615;SDS011;43816;52.054;-9.494;2023-04-01T00:31:51;2.20;;;1.33;;
57615;SDS011;43816;52.054;-9.494;2023-04-01T00:32:01;2.23;;;1.43;;
57615;SDS011;43816;52.054;-9.494;2023-04-01T00:32:12;1.90;;;1.40;;
57615;SDS011;43816;52.054;-9.494;2023-04-01T00:32:23;2.28;;;1.42;;
57615;SDS011;43816;52.054;-9.494;2023-04-01T00:32:34;1.83;;;1.20;;
57615;SDS011;43816;52.054;-9.494;2023-04-01T00:32:51;2.20;;;1.30;;
57615;SDS011;43816;52.054;-9.494;2023-04-01T00:33:02;2.55;;;1.40;;
57615;SDS011;43816;52.054;-9.494;2023-04-01T00:33:13;2.80;;;1.40;;
57615;SDS011;43816;52.054;-9.494;2023-04-01T00:33:23;2.57;;;1.30;;
57615;SDS011;43816;52.054;-9.494;2023-04-01T00:33:34;2.03;;;1.17;;
57615;SDS011;43816;52.054;-9.494;2023-04-01T00:33:44;1.90;;;1.27;;
57615;SDS011;43816;52.054;-9.494;2023-04-01T00:33:56;2.13;;;1.27;;
57615;SDS011;43816;52.054;-9.494;2023-04-01T00:34:07;2.13;;;1.30;;
57615;SDS011;43816;52.054;-9.494;2023-04-01T00:34:17;1.87;;;1.30;;
57615;SDS011;43816;52.054;-9.494;2023-04-01T00:34:27;2.10;;;1.35;;
57615;SDS011;43816;52.054;-9.494;2023-04-01T00:34:38;2.40;;;1.30;;
57615;SDS011;43816;52.054;-9.494;2023-04-01T00:34:51;2.63;;;1.37;;
57615;SDS011;43816;52.054;-9.494;2023-04-01T00:35:02;2.17;;;1.30;;
57615;SDS011;43816;52.054;-9.494;2023-04-01T00:35:13;2.08;;;1.27;;
57615;SDS011;43816;52.054;-9.494;2023-04-01T00:35:24;1.90;;;1.23;;
57615;SDS011;43816;52.054;-9.494;2023-04-01T00:35:34;1.92;;;1.33;;
57615;SDS011;43816;52.054;-9.494;2023-04-01T00:35:44;1.90;;;1.40;;
57615;SDS011;43816;52.054;-9.494;2023-04-01T00:35:55;2.50;;;1.50;;
57615;SDS011;43816;52.054;-9.494;2023-04-01T00:36:16;2.25;;;1.30;;
57615;SDS011;43816;52.054;-9.494;2023-04-01T00:36:28;2.33;;;1.35;;
57615;SDS011;43816;52.054;-9.494;2023-04-01T00:36:39;2.50;;;1.50;;
57615;SDS011;43816;52.054;-9.494;2023-04-01T00:36:49;2.27;;;1.40;;
57615;SDS011;43816;52.054;-9.494;2023-04-01T00:37:00;2.25;;;1.30;;
57615;SDS011;43816;52.054;-9.494;2023-04-01T00:37:11;2.13;;;1.20;;
57615;SDS011;43816;52.054;-9.494;2023-04-01T00:37:21;2.13;;;1.27;;
57615;SDS011;43816;52.054;-9.494;2023-04-01T00:37:33;2.10;;;1.33;;
57615;SDS011;43816;52.054;-9.494;2023-04-01T00:37:45;2.13;;;1.48;;
57615;SDS011;43816;52.054;-9.494;2023-04-01T00:37:55;2.20;;;1.47;;
57615;SDS011;43816;52.054;-9.494;2023-04-01T00:38:05;2.17;;;1.40;;
57615;SDS011;43816;52.054;-9.494;2023-04-01T00:38:16;2.40;;;1.55;;
57615;SDS011;43816;52.054;-9.494;2023-04-01T00:38:26;2.30;;;1.50;;
57615;SDS011;43816;52.054;-9.494;2023-04-01T00:38:36;2.00;;;1.50;;
57615;SDS011;43816;52.054;-9.494;2023-04-01T00:38:47;1.80;;;1.42;;
57615;SDS011;43816;52.054;-9.494;2023-04-01T00:38:58;2.13;;;1.50;;
57615;SDS011;43816;52.054;-9.494;2023-04-01T00:39:08;1.90;;;1.30;;
57615;SDS011;43816;52.054;-9.494;2023-04-01T00:39:19;2.20;;;1.40;;
57615;SDS011;43816;52.054;-9.494;2023-04-01T00:39:30;2.28;;;1.40;;
57615;SDS011;43816;52.054;-9.494;2023-04-01T00:39:44;2.80;;;1.40;;
57615;SDS011;43816;52.054;-9.494;2023-04-01T00:39:54;2.22;;;1.20;;
57615;SDS011;43816;52.054;-9.494;2023-04-01T00:40:06;2.42;;;1.20;;
57615;SDS011;43816;52.054;-9.494;2023-04-01T00:40:22;2.47;;;1.23;;
57615;SDS011;43816;52.054;-9.494;2023-04-01T00:40:43;3.08;;;1.50;;
57615;SDS011;43816;52.054;-9.494;2023-04-01T00:40:57;2.58;;;1.30;;
57615;SDS011;43816;52.054;-9.494;2023-04-01T00:41:07;2.05;;;1.23;;
57615;SDS011;43816;52.054;-9.494;2023-04-01T00:41:19;2.35;;;1.30;;
57615;SDS011;43816;52.054;-9.494;2023-04-01T00:41:32;2.90;;;1.42;;
57615;SDS011;43816;52.054;-9.494;2023-04-01T00:41:43;2.55;;;1.40;;
57615;SDS011;43816;52.054;-9.494;2023-04-01T00:41:53;2.42;;;1.50;;
57615;SDS011;43816;52.054;-9.494;2023-04-01T00:42:03;2.57;;;1.50;;
57615;SDS011;43816;52.054;-9.494;2023-04-01T00:42:14;2.63;;;1.43;;
57615;SDS011;43816;52.054;-9.494;2023-04-01T00:42:24;2.42;;;1.23;;
57615;SDS011;43816;52.054;-9.494;2023-04-01T00:42:34;2.47;;;1.20;;
57615;SDS011;43816;52.054;-9.494;2023-04-01T00:42:45;2.33;;;1.23;;
57615;SDS011;43816;52.054;-9.494;2023-04-01T00:42:55;2.38;;;1.30;;
57615;SDS011;43816;52.054;-9.494;2023-04-01T00:43:13;1.67;;;1.20;;
57615;SDS011;43816;52.054;-9.494;2023-04-01T00:43:26;1.70;;;1.10;;
57615;SDS011;43816;52.054;-9.494;2023-04-01T00:43:37;2.40;;;1.10;;
57615;SDS011;43816;52.054;-9.494;2023-04-01T00:43:48;2.57;;;1.03;;
57615;SDS011;43816;52.054;-9.494;2023-04-01T00:44:51;2.03;;;1.13;;
57615;SDS011;43816;52.054;-9.494;2023-04-01T00:45:53;2.17;;;1.30;;
57615;SDS011;43816;52.054;-9.494;2023-04-01T00:46:03;2.53;;;1.40;;
57615;SDS011;43816;52.054;-9.494;2023-04-01T00:46:14;2.20;;;1.30;;
57615;SDS011;43816;52.054;-9.494;2023-04-01T00:46:24;2.17;;;1.30;;
57615;SDS011;43816;52.054;-9.494;2023-04-01T00:46:35;1.90;;;1.20;;
57615;SDS011;43816;52.054;-9.494;2023-04-01T00:46:45;1.93;;;1.20;;
57615;SDS011;43816;52.054;-9.494;2023-04-01T00:46:56;2.28;;;1.20;;
57615;SDS011;43816;52.054;-9.494;2023-04-01T00:47:11;2.70;;;1.23;;
57615;SDS011;43816;52.054;-9.494;2023-04-01T00:47:22;2.30;;;1.20;;
57615;SDS011;43816;52.054;-9.494;2023-04-01T00:47:36;2.08;;;1.25;;
57615;SDS011;43816;52.054;-9.494;2023-04-01T00:47:46;2.10;;;1.20;;
57615;SDS011;43816;52.054;-9.494;2023-04-01T00:47:56;2.08;;;1.20;;
57615;SDS011;43816;52.054;-9.494;2023-04-01T00:48:14;1.83;;;1.13;;
57615;SDS011;43816;52.054;-9.494;2023-04-01T00:48:30;2.38;;;1.35;;
57615;SDS011;43816;52.054;-9.494;2023-04-01T00:48:52;2.75;;;1.50;;
57615;SDS011;43816;52.054;-9.494;2023-04-01T00:49:05;2.65;;;1.30;;
57615;SDS011;43816;52.054;-9.494;2023-04-01T00:49:15;2.78;;;1.30;;
57615;SDS011;43816;52.054;-9.494;2023-04-01T00:49:32;2.13;;;1.25;;
57615;SDS011;43816;52.054;-9.494;2023-04-01T00:49:50;1.92;;;1.10;;
57615;SDS011;43816;52.054;-9.494;2023-04-01T00:50:04;1.83;;;1.10;;
57615;SDS011;43816;52.054;-9.494;2023-04-01T00:50:15;2.25;;;1.40;;
57615;SDS011;43816;52.054;-9.494;2023-04-01T00:50:25;2.30;;;1.30;;
57615;SDS011;43816;52.054;-9.494;2023-04-01T00:50:38;2.13;;;1.30;;
57615;SDS011;43816;52.054;-9.494;2023-04-01T00:51:28;2.05;;;1.30;;
57615;SDS011;43816;52.054;-9.494;2023-04-01T00:51:40;1.70;;;1.02;;
57615;SDS011;43816;52.054;-9.494;2023-04-01T00:51:53;1.70;;;1.02;;
57615;SDS011;43816;52.054;-9.494;2023-04-01T00:52:12;1.50;;;1.05;;
57615;SDS011;43816;52.054;-9.494;2023-04-01T00:52:25;2.13;;;1.20;;
57615;SDS011;43816;52.054;-9.494;2023-04-01T00:52:36;2.17;;;1.30;;
57615;SDS011;43816;52.054;-9.494;2023-04-01T00:52:47;2.42;;;1.23;;
57615;SDS011;43816;52.054;-9.494;2023-04-01T00:52:58;2.10;;;1.20;;
57615;SDS011;43816;52.054;-9.494;2023-04-01T00:53:10;1.85;;;1.20;;
57615;SDS011;43816;52.054;-9.494;2023-04-01T00:53:21;1.70;;;1.38;;
57615;SDS011;43816;52.054;-9.494;2023-04-01T00:53:37;2.40;;;1.40;;
57615;SDS011;43816;52.054;-9.494;2023-04-01T00:53:55;2.60;;;1.35;;
57615;SDS011;43816;52.054;-9.494;2023-04-01T00:54:07;2.42;;;1.30;;
57615;SDS011;43816;52.054;-9.494;2023-04-01T00:54:20;2.25;;;1.27;;
57615;SDS011;43816;52.054;-9.494;2023-04-01T00:54:32;1.95;;;1.20;;
57615;SDS011;43816;52.054;-9.494;2023-04-01T00:54:45;1.98;;;1.23;;
57615;SDS011;43816;52.054;-9.494;2023-04-01T00:54:58;2.40;;;1.20;;
57615;SDS011;43816;52.054;-9.494;2023-04-01T00:55:10;2.67;;;1.30;;
57615;SDS011;43816;52.054;-9.494;2023-04-01T00:55:22;2.60;;;1.40;;
57615;SDS011;43816;52.054;-9.494;2023-04-01T00:55:35;2.33;;;1.40;;
57615;SDS011;43816;52.054;-9.494;2023-04-01T00:55:50;1.75;;;1.25;;
57615;SDS011;43816;52.054;-9.494;2023-04-01T00:56:22;1.88;;;1.20;;
57615;SDS011;43816;52.054;-9.494;2023-04-01T00:56:36;2.15;;;1.30;;
57615;SDS011;43816;52.054;-9.494;2023-04-01T00:56:53;1.92;;;1.30;;
57615;SDS011;43816;52.054;-9.494;2023-04-01T00:57:13;1.73;;;1.23;;
57615;SDS011;43816;52.054;-9.494;2023-04-01T00:57:31;2.17;;;1.33;;
57615;SDS011;43816;52.054;-9.494;2023-04-01T00:57:45;1.90;;;1.20;;
57615;SDS011;43816;52.054;-9.494;2023-04-01T00:57:58;1.58;;;1.13;;
57615;SDS011;43816;52.054;-9.494;2023-04-01T00:58:14;1.40;;;0.95;;
57615;SDS011;43816;52.054;-9.494;2023-04-01T00:58:31;1.85;;;1.10;;
57615;SDS011;43816;52.054;-9.494;2023-04-01T00:58:47;2.15;;;1.25;;
57615;SDS011;43816;52.054;-9.494;2023-04-01T00:59:11;1.80;;;1.20;;
57615;SDS011;43816;52.054;-9.494;2023-04-01T00:59:27;1.80;;;1.20;;
57615;SDS011;43816;52.054;-9.494;2023-04-01T00:59:45;1.77;;;1.05;;
57615;SDS011;43816;52.054;-9.494;2023-04-01T00:59:57;1.90;;;1.10;;
57615;SDS011;43816;52.054;-9.494;2023-04-01T01:00:10;1.90;;;1.20;;
57615;SDS011;43816;52.054;-9.494;2023-04-01T01:00:22;2.10;;;1.27;;
57615;SDS011;43816;52.054;-9.494;2023-04-01T01:00:33;2.20;;;1.20;;
57615;SDS011;43816;52.054;-9.494;2023-04-01T01:00:45;2.35;;;1.20;;
57615;SDS011;43816;52.054;-9.494;2023-04-01T01:00:58;2.42;;;1.25;;
57615;SDS011;43816;52.054;-9.494;2023-04-01T01:01:09;1.98;;;1.10;;
57615;SDS011;43816;52.054;-9.494;2023-04-01T01:01:20;2.13;;;1.13;;
57615;SDS011;43816;52.054;-9.494;2023-04-01T01:01:31;1.83;;;1.20;;
57615;SDS011;43816;52.054;-9.494;2023-04-01T01:01:44;2.20;;;1.30;;
57615;SDS011;43816;52.054;-9.494;2023-04-01T01:01:54;2.55;;;1.23;;
57615;SDS011;43816;52.054;-9.494;2023-04-01T01:02:05;2.77;;;1.10;;
57615;SDS011;43816;52.054;-9.494;2023-04-01T01:02:18;2.70;;;1.10;;
57615;SDS011;43816;52.054;-9.494;2023-04-01T01:02:29;2.43;;;1.10;;
57615;SDS011;43816;52.054;-9.494;2023-04-01T01:02:45;2.20;;;1.17;;
57615;SDS011;43816;52.054;-9.494;2023-04-01T01:02:57;2.05;;;1.10;;
57615;SDS011;43816;52.054;-9.494;2023-04-01T01:03:08;1.90;;;1.10;;
57615;SDS011;43816;52.054;-9.494;2023-04-01T01:03:18;1.70;;;1.10;;
57615;SDS011;43816;52.054;-9.494;2023-04-01T01:03:29;1.50;;;1.10;;
57615;SDS011;43816;52.054;-9.494;2023-04-01T01:03:39;1.73;;;1.13;;
57615;SDS011;43816;52.054;-9.494;2023-04-01T01:03:49;1.80;;;1.20;;
57615;SDS011;43816;52.054;-9.494;2023-04-01T01:04:00;2.13;;;1.10;;
57615;SDS011;43816;52.054;-9.494;2023-04-01T01:04:40;2.53;;;1.30;;
57615;SDS011;43816;52.054;-9.494;2023-04-01T01:04:51;2.10;;;1.20;;
57615;SDS011;43816;52.054;-9.494;2023-04-01T01:05:04;2.58;;;1.30;;
57615;SDS011;43816;52.054;-9.494;2023-04-01T01:05:15;3.08;;;1.20;;
57615;SDS011;43816;52.054;-9.494;2023-04-01T01:05:30;2.83;;;1.27;;
57615;SDS011;43816;52.054;-9.494;2023-04-01T01:06:59;2.17;;;1.23;;
57615;SDS011;43816;52.054;-9.494;2023-04-01T01:08:31;2.28;;;1.17;;
57615;SDS011;43816;52.054;-9.494;2023-04-01T01:10:25;2.60;;;1.20;;
57615;SDS011;43816;52.054;-9.494;2023-04-01T01:10:41;2.08;;;1.30;;
57615;SDS011;43816;52.054;-9.494;2023-04-01T01:10:53;1.95;;;1.30;;
57615;SDS011;43816;52.054;-9.494;2023-04-01T01:11:04;2.03;;;1.20;;
57615;SDS011;43816;52.054;-9.494;2023-04-01T01:11:17;2.05;;;1.10;;
57615;SDS011;43816;52.054;-9.494;2023-04-01T01:11:42;1.83;;;1.02;;
57615;SDS011;43816;52.054;-9.494;2023-04-01T01:12:29;2.25;;;1.20;;
57615;SDS011;43816;52.054;-9.494;2023-04-01T01:14:01;2.40;;;1.10;;
57615;SDS011;43816;52.054;-9.494;2023-04-01T01:15:44;2.30;;;1.30;;
57615;SDS011;43816;52.054;-9.494;2023-04-01T01:16:10;2.58;;;1.38;;
57615;SDS011;43816;52.054;-9.494;2023-04-01T01:16:29;2.17;;;1.30;;
57615;SDS011;43816;52.054;-9.494;2023-04-01T01:16:46;2.50;;;1.48;;
57615;SDS011;43816;52.054;-9.494;2023-04-01T01:17:11;2.10;;;1.30;;
57615;SDS011;43816;52.054;-9.494;2023-04-01T01:18:14;1.85;;;1.13;;
57615;SDS011;43816;52.054;-9.494;2023-04-01T01:23:46;2.35;;;1.20;;
57615;SDS011;43816;52.054;-9.494;2023-04-01T01:24:26;2.40;;;1.30;;
57615;SDS011;43816;52.054;-9.494;2023-04-01T01:25:56;2.22;;;1.20;;
57615;SDS011;43816;52.054;-9.494;2023-04-01T01:26:45;2.72;;;1.20;;
57615;SDS011;43816;52.054;-9.494;2023-04-01T01:27:19;2.05;;;1.30;;
57615;SDS011;43816;52.054;-9.494;2023-04-01T01:27:31;2.55;;;1.30;;
57615;SDS011;43816;52.054;-9.494;2023-04-01T01:27:47;2.47;;;1.40;;
57615;SDS011;43816;52.054;-9.494;2023-04-01T01:28:13;2.45;;;1.25;;
57615;SDS011;43816;52.054;-9.494;2023-04-01T01:28:52;2.25;;;1.00;;
57615;SDS011;43816;52.054;-9.494;2023-04-01T01:30:14;2.53;;;1.40;;
57615;SDS011;43816;52.054;-9.494;2023-04-01T01:30:33;2.25;;;1.30;;
57615;SDS011;43816;52.054;-9.494;2023-04-01T01:35:36;2.00;;;1.00;;
57615;SDS011;43816;52.054;-9.494;2023-04-01T01:35:51;2.17;;;1.08;;
57615;SDS011;43816;52.054;-9.494;2023-04-01T01:36:04;2.20;;;1.20;;
57615;SDS011;43816;52.054;-9.494;2023-04-01T01:36:18;1.80;;;1.10;;
57615;SDS011;43816;52.054;-9.494;2023-04-01T01:36:31;1.60;;;1.10;;
57615;SDS011;43816;52.054;-9.494;2023-04-01T01:36:43;2.00;;;1.08;;
57615;SDS011;43816;52.054;-9.494;2023-04-01T01:37:01;2.30;;;1.08;;
57615;SDS011;43816;52.054;-9.494;2023-04-01T01:37:16;2.65;;;1.10;;
57615;SDS011;43816;52.054;-9.494;2023-04-01T01:37:30;2.65;;;1.00;;
57615;SDS011;43816;52.054;-9.494;2023-04-01T01:37:41;2.20;;;1.00;;
57615;SDS011;43816;52.054;-9.494;2023-04-01T01:37:54;1.95;;;0.98;;
57615;SDS011;43816;52.054;-9.494;2023-04-01T01:38:13;1.85;;;1.08;;
57615;SDS011;43816;52.054;-9.494;2023-04-01T01:38:27;2.33;;;1.13;;